Mn Pelican — FMLR — position and weather

sailwx.info

Track history (hours):
 
Tides and Currents Weather Stations Pressure Air Temp Water Temp Dewpoint Dewpoint Depression Visibility Wind Speed Wind Dir Waves Ship Positions

Mn Pelican

Last reported at 2016-Aug-28 07:08 UTC. Time now 2016-Aug-28 12:14 UTC.
Position N 46°45' W 004°59'.

Length 155 m; draft 6.1 m.

Type: Ship. MMSI: 228315700.

Date/timePositionNaut miles runAvg speedWind from/ knotsBaromVisibWave heightAir tempDewpointWater temp
2016-Aug-28 07:08N 46°45' W 004°59'9115.9
2016-Aug-28 01:25N 45°21' W 004°11'3516.6
2016-Aug-27 23:17N 44°48' W 003°52'1216.5
2016-Aug-27 22:33N 44°37' W 003°46'3716.4
2016-Aug-27 20:17N 44°02' W 003°27'203 6.6
2016-Aug-26 13:32N 47°11' W 005°14'5617.7
2016-Aug-26 10:24N 48°02' W 005°43'2614.4
2016-Aug-26 08:33N 48°28' W 005°55'8 8.4
2016-Aug-26 07:34N 48°36' W 005°58'1513.0
2016-Aug-26 06:26N 48°49' W 005°48'2614.1
2016-Aug-26 04:34N 49°05' W 005°16'1814.8
2016-Aug-26 03:19N 49°16' W 004°54'1214.4
2016-Aug-26 02:31N 49°23' W 004°39'1313.7
2016-Aug-26 01:33N 49°30' W 004°22'1613.6
2016-Aug-26 00:24N 49°39' W 004°02'1213.6
2016-Aug-25 23:29N 49°47' W 003°48'1212.1
2016-Aug-25 22:31N 49°54' W 003°34'1212.8
2016-Aug-25 21:33N 50°01' W 003°17'1414.2
2016-Aug-25 20:33N 50°08' W 002°58'1515.2
2016-Aug-25 19:34N 50°15' W 002°38'1616.4
2016-Aug-25 18:34N 50°23' W 002°15'1616.4
2016-Aug-25 17:33N 50°34' W 001°55'9 8.2
2016-Aug-25 16:25N 50°42' W 001°59'0 0.0
2016-Aug-25 15:33N 50°42' W 001°59'0 0.0
2016-Aug-25 14:33N 50°42' W 001°59'0 0.0
2016-Aug-25 13:33N 50°42' W 001°59'0 0.0
2016-Aug-25 12:32N 50°42' W 001°59'0 0.0
2016-Aug-25 11:32N 50°42' W 001°59'0 0.0
2016-Aug-25 10:31N 50°42' W 001°59'0 0.0
2016-Aug-25 09:33N 50°42' W 001°59'5 4.9
2016-Aug-25 08:33N 50°39' W 001°55'10 9.5
2016-Aug-25 07:32N 50°29' W 001°54'9 8.7
2016-Aug-25 06:31N 50°20' W 001°55'2010.2
2016-Aug-25 04:33N 50°01' W 002°04'1110.7
2016-Aug-25 03:34N 49°57' W 002°19'2612.9
2016-Aug-25 01:34N 49°49' W 002°58'1915.2
2016-Aug-25 00:18N 49°39' W 003°23'1215.1
2016-Aug-24 23:32N 49°33' W 003°38'1515.0
2016-Aug-24 22:33N 49°26' W 003°58'1515.2
2016-Aug-24 21:33N 49°19' W 004°18'1614.7
2016-Aug-24 20:27N 49°11' W 004°40'1614.4
2016-Aug-24 19:21N 49°03' W 005°01'1514.1
2016-Aug-24 18:19N 48°55' W 005°20'1313.7
2016-Aug-24 17:22N 48°49' W 005°37'1413.0
2016-Aug-24 16:16N 48°36' W 005°48'912.8
2016-Aug-24 15:33N 48°27' W 005°51'2814.0
2016-Aug-24 13:33N 48°00' W 005°41'1514.8
2016-Aug-24 12:33N 47°46' W 005°34'1514.7
2016-Aug-24 11:33N 47°33' W 005°26'1515.1
2016-Aug-24 10:33N 47°18' W 005°19'1514.7
2016-Aug-24 09:33N 47°05' W 005°11'1514.9
2016-Aug-24 08:33N 46°51' W 005°02'1414.3
2016-Aug-24 07:33N 46°38' W 004°54'1514.3
2016-Aug-24 06:32N 46°24' W 004°47'2915.0
2016-Aug-24 04:34N 45°57' W 004°31'1715.0
2016-Aug-24 03:27N 45°41' W 004°22'1414.4
2016-Aug-24 02:29N 45°28' W 004°15'1414.6
2016-Aug-24 01:33N 45°15' W 004°08'1514.9
2016-Aug-24 00:33N 45°02' W 004°00'1515.5
2016-Aug-23 23:33N 44°48' W 003°51'1414.4
2016-Aug-23 22:33N 44°34' W 003°44'1514.7
2016-Aug-23 21:33N 44°20' W 003°37'1815.2
2016-Aug-23 20:21N 44°03' W 003°28'3616.1
2016-Aug-23 18:06N 43°30' W 003°09'814.3
2016-Aug-23 17:33N 43°23' W 003°05'175 7.5
2016-Aug-22 18:08N 46°05' W 004°35'1417.3
2016-Aug-22 17:18N 46°18' W 004°43'1317.5
2016-Aug-22 16:33N 46°30' W 004°49'1817.7
2016-Aug-22 15:33N 46°47' W 004°59'1817.7
2016-Aug-22 14:33N 47°03' W 005°09'1717.1
2016-Aug-22 13:33N 47°19' W 005°18'4317.2
2016-Aug-22 11:05N 47°58' W 005°42'1217.5
2016-Aug-22 10:24N 48°10' W 005°48'4716.4
2016-Aug-22 07:32N 48°57' W 005°44'1717.1
2016-Aug-22 06:33N 49°12' W 005°35'1514.9
2016-Aug-22 05:33N 49°26' W 005°26'1312.4
2016-Aug-22 04:29N 49°39' W 005°19'1213.4
2016-Aug-22 03:33N 49°50' W 005°11'1514.7
2016-Aug-22 02:32N 49°55' W 004°50'1515.3
2016-Aug-22 01:34N 49°60' W 004°28'1515.2
2016-Aug-22 00:33N 50°04' W 004°05'1414.3
2016-Aug-21 23:34N 50°07' W 003°43'1313.1
2016-Aug-21 22:33N 50°11' W 003°23'1212.5
2016-Aug-21 21:33N 50°15' W 003°05'1212.1
2016-Aug-21 20:33N 50°18' W 002°47'3812.7
2016-Aug-21 17:34N 50°35' W 001°54'8 6.5
2016-Aug-21 16:20N 50°42' W 001°59'0 0.0
2016-Aug-21 15:31N 50°42' W 001°59'0 0.0
2016-Aug-21 14:31N 50°42' W 001°59'0 0.0
2016-Aug-21 13:30N 50°42' W 001°59'0 0.0
2016-Aug-21 12:33N 50°42' W 001°59'0 0.0
2016-Aug-21 11:32N 50°42' W 001°59'0 0.0
2016-Aug-21 10:32N 50°42' W 001°59'0 0.0
2016-Aug-21 09:32N 50°42' W 001°59'1 1.2
2016-Aug-21 08:33N 50°42' W 001°58'9 8.6
2016-Aug-21 07:34N 50°35' W 001°50'17411.6
2016-Aug-20 16:32N 48°52' W 005°26'  
Track history (hours):
 
Tides and Currents Weather Stations Pressure Air Temp Water Temp Dewpoint Dewpoint Depression Visibility Wind Speed Wind Dir Waves Ship Positions

Mn Pelican

Last reported at 2016-Aug-28 07:08 UTC. Time now 2016-Aug-28 12:14 UTC.
Position N 46°45' W 004°59'.

Length 155 m; draft 6.1 m.

Type: Ship. MMSI: 228315700.

Date/timePositionNaut miles runAvg speedWind from/ knotsBaromVisibWave heightAir tempDewpointWater temp
2016-Aug-28 07:08N 46°45' W 004°59'9115.9
2016-Aug-28 01:25N 45°21' W 004°11'3516.6
2016-Aug-27 23:17N 44°48' W 003°52'1216.5
2016-Aug-27 22:33N 44°37' W 003°46'3716.4
2016-Aug-27 20:17N 44°02' W 003°27'203 6.6
2016-Aug-26 13:32N 47°11' W 005°14'5617.7
2016-Aug-26 10:24N 48°02' W 005°43'2614.4
2016-Aug-26 08:33N 48°28' W 005°55'8 8.4
2016-Aug-26 07:34N 48°36' W 005°58'1513.0
2016-Aug-26 06:26N 48°49' W 005°48'2614.1
2016-Aug-26 04:34N 49°05' W 005°16'1814.8
2016-Aug-26 03:19N 49°16' W 004°54'1214.4
2016-Aug-26 02:31N 49°23' W 004°39'1313.7
2016-Aug-26 01:33N 49°30' W 004°22'1613.6
2016-Aug-26 00:24N 49°39' W 004°02'1213.6
2016-Aug-25 23:29N 49°47' W 003°48'1212.1
2016-Aug-25 22:31N 49°54' W 003°34'1212.8
2016-Aug-25 21:33N 50°01' W 003°17'1414.2
2016-Aug-25 20:33N 50°08' W 002°58'1515.2
2016-Aug-25 19:34N 50°15' W 002°38'1616.4
2016-Aug-25 18:34N 50°23' W 002°15'1616.4
2016-Aug-25 17:33N 50°34' W 001°55'9 8.2
2016-Aug-25 16:25N 50°42' W 001°59'0 0.0
2016-Aug-25 15:33N 50°42' W 001°59'0 0.0
2016-Aug-25 14:33N 50°42' W 001°59'0 0.0
2016-Aug-25 13:33N 50°42' W 001°59'0 0.0
2016-Aug-25 12:32N 50°42' W 001°59'0 0.0
2016-Aug-25 11:32N 50°42' W 001°59'0 0.0
2016-Aug-25 10:31N 50°42' W 001°59'0 0.0
2016-Aug-25 09:33N 50°42' W 001°59'5 4.9
2016-Aug-25 08:33N 50°39' W 001°55'10 9.5
2016-Aug-25 07:32N 50°29' W 001°54'9 8.7
2016-Aug-25 06:31N 50°20' W 001°55'2010.2
2016-Aug-25 04:33N 50°01' W 002°04'1110.7
2016-Aug-25 03:34N 49°57' W 002°19'2612.9
2016-Aug-25 01:34N 49°49' W 002°58'1915.2
2016-Aug-25 00:18N 49°39' W 003°23'1215.1
2016-Aug-24 23:32N 49°33' W 003°38'1515.0
2016-Aug-24 22:33N 49°26' W 003°58'1515.2
2016-Aug-24 21:33N 49°19' W 004°18'1614.7
2016-Aug-24 20:27N 49°11' W 004°40'1614.4
2016-Aug-24 19:21N 49°03' W 005°01'1514.1
2016-Aug-24 18:19N 48°55' W 005°20'1313.7
2016-Aug-24 17:22N 48°49' W 005°37'1413.0
2016-Aug-24 16:16N 48°36' W 005°48'912.8
2016-Aug-24 15:33N 48°27' W 005°51'2814.0
2016-Aug-24 13:33N 48°00' W 005°41'1514.8
2016-Aug-24 12:33N 47°46' W 005°34'1514.7
2016-Aug-24 11:33N 47°33' W 005°26'1515.1
2016-Aug-24 10:33N 47°18' W 005°19'1514.7
2016-Aug-24 09:33N 47°05' W 005°11'1514.9
2016-Aug-24 08:33N 46°51' W 005°02'1414.3
2016-Aug-24 07:33N 46°38' W 004°54'1514.3
2016-Aug-24 06:32N 46°24' W 004°47'2915.0
2016-Aug-24 04:34N 45°57' W 004°31'1715.0
2016-Aug-24 03:27N 45°41' W 004°22'1414.4
2016-Aug-24 02:29N 45°28' W 004°15'1414.6
2016-Aug-24 01:33N 45°15' W 004°08'1514.9
2016-Aug-24 00:33N 45°02' W 004°00'1515.5
2016-Aug-23 23:33N 44°48' W 003°51'1414.4
2016-Aug-23 22:33N 44°34' W 003°44'1514.7
2016-Aug-23 21:33N 44°20' W 003°37'1815.2
2016-Aug-23 20:21N 44°03' W 003°28'3616.1
2016-Aug-23 18:06N 43°30' W 003°09'814.3
2016-Aug-23 17:33N 43°23' W 003°05'175 7.5
2016-Aug-22 18:08N 46°05' W 004°35'1417.3
2016-Aug-22 17:18N 46°18' W 004°43'1317.5
2016-Aug-22 16:33N 46°30' W 004°49'1817.7
2016-Aug-22 15:33N 46°47' W 004°59'1817.7
2016-Aug-22 14:33N 47°03' W 005°09'1717.1
2016-Aug-22 13:33N 47°19' W 005°18'4317.2
2016-Aug-22 11:05N 47°58' W 005°42'1217.5
2016-Aug-22 10:24N 48°10' W 005°48'4716.4
2016-Aug-22 07:32N 48°57' W 005°44'1717.1
2016-Aug-22 06:33N 49°12' W 005°35'1514.9
2016-Aug-22 05:33N 49°26' W 005°26'1312.4
2016-Aug-22 04:29N 49°39' W 005°19'1213.4
2016-Aug-22 03:33N 49°50' W 005°11'1514.7
2016-Aug-22 02:32N 49°55' W 004°50'1515.3
2016-Aug-22 01:34N 49°60' W 004°28'1515.2
2016-Aug-22 00:33N 50°04' W 004°05'1414.3
2016-Aug-21 23:34N 50°07' W 003°43'1313.1
2016-Aug-21 22:33N 50°11' W 003°23'1212.5
2016-Aug-21 21:33N 50°15' W 003°05'1212.1
2016-Aug-21 20:33N 50°18' W 002°47'3812.7
2016-Aug-21 17:34N 50°35' W 001°54'8 6.5
2016-Aug-21 16:20N 50°42' W 001°59'0 0.0
2016-Aug-21 15:31N 50°42' W 001°59'0 0.0
2016-Aug-21 14:31N 50°42' W 001°59'0 0.0
2016-Aug-21 13:30N 50°42' W 001°59'0 0.0
2016-Aug-21 12:33N 50°42' W 001°59'0 0.0
2016-Aug-21 11:32N 50°42' W 001°59'0 0.0
2016-Aug-21 10:32N 50°42' W 001°59'0 0.0
2016-Aug-21 09:32N 50°42' W 001°59'1 1.2
2016-Aug-21 08:33N 50°42' W 001°58'9 8.6
2016-Aug-21 07:34N 50°35' W 001°50'17411.6
2016-Aug-20 16:32N 48°52' W 005°26'  

Dump ship's entire track history